createdAt,value
2022-11-23T00:02:17.713Z,11.77
2022-11-23T00:04:47.596Z,11.77
2022-11-23T00:07:17.181Z,12.13
2022-11-23T00:09:46.894Z,11.32
2022-11-23T00:12:19.093Z,10.43
2022-11-23T00:14:48.612Z,9.90
2022-11-23T00:17:18.408Z,12.35
2022-11-23T00:19:48.426Z,10.38
2022-11-23T00:22:18.170Z,10.35
2022-11-23T00:24:48.007Z,10.55
2022-11-23T00:27:20.237Z,10.90
2022-11-23T00:29:49.934Z,10.85
2022-11-23T00:32:19.547Z,10.45
2022-11-23T00:34:49.166Z,11.75
2022-11-23T00:37:18.715Z,10.18
2022-11-23T00:39:48.390Z,11.35
2022-11-23T00:42:20.736Z,10.82
2022-11-23T00:44:50.364Z,12.32
2022-11-23T00:47:20.029Z,11.20
2022-11-23T00:49:49.535Z,11.77
2022-11-23T00:52:19.086Z,11.63
2022-11-23T00:54:48.639Z,11.27
2022-11-23T00:57:20.994Z,11.57
2022-11-23T00:59:50.562Z,11.57
2022-11-23T01:02:20.132Z,12.00
2022-11-23T01:04:49.672Z,11.35
2022-11-23T01:07:19.242Z,12.43
2022-11-23T01:09:48.850Z,11.30
2022-11-23T01:12:21.052Z,11.18
2022-11-23T01:14:50.641Z,10.98
2022-11-23T01:17:20.180Z,12.85
2022-11-23T01:19:49.911Z,12.23
2022-11-23T01:22:20.323Z,11.77
2022-11-23T01:24:49.952Z,11.50
2022-11-23T01:27:22.121Z,12.82
2022-11-23T01:29:51.775Z,11.30
2022-11-23T01:32:21.317Z,11.60
2022-11-23T01:34:50.930Z,11.13
2022-11-23T01:37:20.493Z,11.20
2022-11-23T01:39:51.601Z,10.75
2022-11-23T01:42:23.800Z,10.50
2022-11-23T01:44:53.858Z,9.88
2022-11-23T01:47:23.463Z,9.82
2022-11-23T01:49:55.353Z,10.65
2022-11-23T01:52:27.627Z,10.60
2022-11-23T01:55:02.683Z,9.70
2022-11-23T01:57:43.475Z,9.38
2022-11-23T02:00:15.056Z,8.73
2022-11-23T02:02:48.879Z,8.90
2022-11-23T02:05:21.293Z,9.23
2022-11-23T02:07:52.714Z,8.32
2022-11-23T02:10:24.106Z,9.32
2022-11-23T02:12:56.932Z,8.90
2022-11-23T02:15:26.499Z,8.03
2022-11-23T02:17:56.445Z,8.85
2022-11-23T02:20:26.400Z,8.38
2022-11-23T02:23:08.797Z,8.70
2022-11-23T02:25:44.246Z,8.60
2022-11-23T02:28:19.670Z,7.78
2022-11-23T02:33:35.700Z,8.63
2022-11-23T02:36:05.636Z,8.57
2022-11-23T02:38:36.587Z,8.15
2022-11-23T02:41:06.143Z,8.57
2022-11-23T02:43:38.775Z,8.32
2022-11-23T02:46:09.398Z,9.10
2022-11-23T02:48:38.955Z,8.80
2022-11-23T02:51:08.731Z,8.50
2022-11-23T02:53:38.259Z,8.77
2022-11-23T02:56:08.268Z,8.85
2022-11-23T02:58:40.526Z,8.77
2022-11-23T03:01:10.257Z,9.85
2022-11-23T03:03:39.886Z,9.98
2022-11-23T03:06:09.615Z,9.48
2022-11-23T03:08:39.213Z,11.65
2022-11-23T03:11:09.149Z,9.30
2022-11-23T03:13:41.402Z,11.80
2022-11-23T03:16:11.370Z,10.43
2022-11-23T03:18:41.209Z,10.70
2022-11-23T03:21:10.958Z,10.88
2022-11-23T03:23:40.896Z,10.50
2022-11-23T03:26:13.086Z,11.02
2022-11-23T03:28:45.527Z,11.90
2022-11-23T03:31:15.187Z,11.32
2022-11-23T03:33:45.194Z,10.77
2022-11-23T03:36:15.178Z,11.75
2022-11-23T03:38:44.972Z,9.93
2022-11-23T03:41:14.781Z,10.52
2022-11-23T03:43:46.945Z,9.10
2022-11-23T03:46:16.524Z,8.85
2022-11-23T03:48:46.028Z,8.15
2022-11-23T03:51:15.612Z,8.40
2022-11-23T03:53:45.235Z,8.18
2022-11-23T03:56:15.199Z,7.00
2022-11-23T03:58:47.397Z,7.47
2022-11-23T04:01:17.103Z,8.43
2022-11-23T04:03:46.675Z,7.50
2022-11-23T04:06:16.286Z,7.97
2022-11-23T04:08:45.934Z,8.27
2022-11-23T04:11:15.509Z,7.60
2022-11-23T04:13:48.029Z,7.85
2022-11-23T04:16:17.756Z,7.40
2022-11-23T04:18:47.267Z,7.20
2022-11-23T04:21:16.904Z,7.40
2022-11-23T04:23:46.560Z,8.25
2022-11-23T04:26:16.101Z,8.95
2022-11-23T04:28:48.427Z,8.77
2022-11-23T04:31:18.315Z,9.57
2022-11-23T04:33:48.158Z,8.45
2022-11-23T04:36:17.903Z,7.57
2022-11-23T04:38:47.525Z,9.18
2022-11-23T04:41:17.244Z,7.75
2022-11-23T04:43:51.956Z,7.72
2022-11-23T04:46:21.693Z,7.88
2022-11-23T04:48:51.264Z,7.70
2022-11-23T04:51:21.142Z,7.72
2022-11-23T04:53:51.371Z,6.30
2022-11-23T04:56:20.953Z,6.43
2022-11-23T04:58:53.119Z,5.93
2022-11-23T05:01:22.911Z,6.78
2022-11-23T05:03:52.556Z,7.30
2022-11-23T05:06:22.253Z,6.65
2022-11-23T05:08:51.767Z,6.65
2022-11-23T05:11:21.330Z,6.97
2022-11-23T05:13:53.470Z,6.50
2022-11-23T05:16:24.455Z,7.75
2022-11-23T05:18:54.334Z,6.45
2022-11-23T05:21:24.201Z,6.95
2022-11-23T05:23:53.748Z,6.57
2022-11-23T05:26:23.318Z,6.75
2022-11-23T05:28:55.484Z,7.28
2022-11-23T05:31:25.086Z,7.43
2022-11-23T05:33:54.810Z,8.35
2022-11-23T05:36:24.418Z,8.73
2022-11-23T05:38:54.373Z,8.30
2022-11-23T05:41:23.960Z,8.35
2022-11-23T05:43:56.168Z,8.45
2022-11-23T05:46:25.720Z,9.32
2022-11-23T05:48:55.359Z,7.50
2022-11-23T05:51:24.928Z,8.32
2022-11-23T05:53:54.542Z,8.38
2022-11-23T05:56:24.132Z,7.40
2022-11-23T05:58:57.810Z,7.13
2022-11-23T06:01:27.453Z,5.90
2022-11-23T06:03:57.041Z,6.85
2022-11-23T06:06:26.643Z,5.28
2022-11-23T06:08:56.289Z,6.25
2022-11-23T06:11:25.891Z,6.18
2022-11-23T06:13:58.111Z,6.18
2022-11-23T06:16:27.705Z,4.85
2022-11-23T06:18:57.279Z,5.13
2022-11-23T06:21:26.925Z,6.95
2022-11-23T06:23:56.549Z,5.35
2022-11-23T06:26:26.106Z,5.50
2022-11-23T06:28:58.214Z,3.80
2022-11-23T06:31:27.812Z,4.05
2022-11-23T06:33:57.497Z,4.13
2022-11-23T06:36:27.062Z,3.50
2022-11-23T06:38:56.912Z,3.08
2022-11-23T06:41:32.198Z,3.50
2022-11-23T06:44:05.088Z,3.33
2022-11-23T06:46:35.125Z,3.30
2022-11-23T06:49:05.002Z,3.33
2022-11-23T06:51:34.618Z,3.78
2022-11-23T06:54:04.212Z,3.25
2022-11-23T06:56:34.726Z,3.55
2022-11-23T06:59:06.901Z,3.80
2022-11-23T07:01:36.751Z,3.22
2022-11-23T07:04:06.494Z,3.53
2022-11-23T07:06:36.130Z,2.83
2022-11-23T07:09:05.680Z,3.35
2022-11-23T07:11:37.705Z,3.20
2022-11-23T07:14:10.103Z,3.20
2022-11-23T07:16:39.708Z,4.20
2022-11-23T07:19:09.500Z,2.30
2022-11-23T07:21:39.140Z,3.53
2022-11-23T07:24:09.499Z,3.13
2022-11-23T07:26:39.096Z,3.03
2022-11-23T07:29:11.337Z,3.33
2022-11-23T07:31:40.896Z,3.70
2022-11-23T07:34:11.283Z,4.05
2022-11-23T07:36:41.315Z,3.45
2022-11-23T07:39:11.368Z,2.85
2022-11-23T07:41:41.014Z,2.75
2022-11-23T07:44:13.306Z,3.13
2022-11-23T07:46:42.854Z,4.25
2022-11-23T07:49:12.450Z,4.68
2022-11-23T07:51:42.124Z,2.88
2022-11-23T07:54:11.845Z,3.35
2022-11-23T07:56:41.540Z,4.30
2022-11-23T07:59:13.681Z,2.85
2022-11-23T08:01:46.215Z,3.75
2022-11-23T08:04:57.240Z,3.58
2022-11-23T08:07:26.871Z,2.85
2022-11-23T08:09:56.579Z,3.03
2022-11-23T08:12:26.163Z,3.40
2022-11-23T08:14:58.297Z,3.35
2022-11-23T08:17:27.845Z,3.75
2022-11-23T08:19:57.395Z,3.33
2022-11-23T08:22:27.290Z,3.17
2022-11-23T08:24:56.848Z,3.78
2022-11-23T08:27:26.383Z,2.78
2022-11-23T08:29:58.582Z,2.78
2022-11-23T08:32:28.180Z,4.28
2022-11-23T08:34:57.665Z,3.53
2022-11-23T08:37:27.247Z,4.25
2022-11-23T08:39:56.791Z,3.30
2022-11-23T08:42:26.344Z,3.65
2022-11-23T08:45:00.209Z,4.47
2022-11-23T08:47:29.801Z,2.92
2022-11-23T08:49:59.443Z,3.85
2022-11-23T08:52:29.661Z,3.38
2022-11-23T08:54:59.263Z,3.28
2022-11-23T08:57:29.733Z,3.70
2022-11-23T09:00:01.842Z,3.33
2022-11-23T09:02:31.532Z,4.30
2022-11-23T09:05:01.266Z,4.70
2022-11-23T09:07:30.928Z,3.45
2022-11-23T09:10:00.520Z,3.92
2022-11-23T09:12:30.437Z,3.85
2022-11-23T09:15:02.588Z,4.13
2022-11-23T09:17:34.651Z,3.90
2022-11-23T09:20:04.539Z,3.63
2022-11-23T09:22:34.422Z,3.20
2022-11-23T09:25:04.115Z,3.70
2022-11-23T09:27:33.831Z,2.97
2022-11-23T09:30:06.411Z,3.05
2022-11-23T09:32:36.080Z,3.67
2022-11-23T09:35:05.767Z,2.97
2022-11-23T09:37:35.390Z,2.88
2022-11-23T09:40:04.945Z,3.08
2022-11-23T09:42:54.752Z,3.13
2022-11-23T09:45:35.895Z,3.65
2022-11-23T09:48:38.491Z,4.07
2022-11-23T09:51:17.756Z,3.47
2022-11-23T09:53:52.812Z,3.50
2022-11-23T09:56:26.395Z,4.30
2022-11-23T09:58:58.770Z,3.65
2022-11-23T10:01:31.376Z,3.53
2022-11-23T10:04:01.408Z,3.20
2022-11-23T10:06:32.211Z,3.88
2022-11-23T10:09:18.284Z,3.92
2022-11-23T10:12:12.724Z,3.72
2022-11-23T10:14:56.719Z,3.78
2022-11-23T10:20:25.546Z,4.88
2022-11-23T10:23:00.716Z,4.50
2022-11-23T10:25:39.284Z,6.03
2022-11-23T10:28:16.166Z,5.85
2022-11-23T10:30:47.709Z,5.82
2022-11-23T10:33:29.470Z,4.65
2022-11-23T10:35:59.068Z,5.03
2022-11-23T10:38:31.031Z,4.40
2022-11-23T10:41:05.619Z,4.35
2022-11-23T10:43:41.910Z,4.60
2022-11-23T10:46:31.926Z,5.45
2022-11-23T10:49:20.653Z,5.78
2022-11-23T10:51:58.817Z,5.50
2022-11-23T10:54:32.756Z,5.50
2022-11-23T10:57:04.279Z,5.78
2022-11-23T10:59:38.348Z,4.90
2022-11-23T11:02:21.087Z,4.15
2022-11-23T11:04:58.569Z,4.53
2022-11-23T11:07:31.241Z,3.85
2022-11-23T11:10:03.473Z,4.68
2022-11-23T11:12:36.597Z,4.53
2022-11-23T11:15:19.221Z,4.93
2022-11-23T11:17:58.778Z,3.92
2022-11-23T11:20:38.342Z,3.33
2022-11-23T11:23:20.298Z,3.55
2022-11-23T11:25:52.433Z,3.40
2022-11-23T11:28:28.023Z,4.22
2022-11-23T11:31:06.017Z,4.05
2022-11-23T11:33:44.077Z,3.53
2022-11-23T11:36:19.751Z,3.72
2022-11-23T11:39:17.169Z,3.72
2022-11-23T11:44:23.176Z,3.55
2022-11-23T11:46:59.664Z,3.38
2022-11-23T11:49:35.003Z,3.55
2022-11-23T11:52:14.066Z,3.50
2022-11-23T11:54:50.178Z,3.88
2022-11-23T11:57:23.632Z,3.45
2022-11-23T11:59:58.083Z,3.60
2022-11-23T12:02:31.207Z,3.70
2022-11-23T12:05:10.512Z,4.07
2022-11-23T12:07:48.298Z,2.85
2022-11-23T12:10:21.465Z,3.08
2022-11-23T12:12:52.212Z,3.55
2022-11-23T12:15:48.202Z,2.80
2022-11-23T12:18:28.231Z,3.83
2022-11-23T12:21:05.608Z,3.75
2022-11-23T12:23:54.480Z,3.25
2022-11-23T12:26:29.910Z,2.72
2022-11-23T12:29:29.800Z,3.08
2022-11-23T12:32:08.617Z,3.22
2022-11-23T12:34:59.658Z,3.00
2022-11-23T12:37:40.800Z,2.83
2022-11-23T12:40:27.201Z,2.67
2022-11-23T12:43:03.945Z,3.15
2022-11-23T12:45:48.641Z,2.92
2022-11-23T12:48:32.284Z,2.20
2022-11-23T12:51:12.697Z,2.70
2022-11-23T12:53:54.514Z,2.58
2022-11-23T12:56:51.649Z,2.95
2022-11-23T12:59:22.359Z,2.67
2022-11-23T13:02:00.136Z,3.78
2022-11-23T13:04:54.315Z,3.25
2022-11-23T13:07:49.728Z,2.83
2022-11-23T13:10:33.198Z,3.00
2022-11-23T13:13:31.978Z,3.00
2022-11-23T13:16:24.562Z,3.53
2022-11-23T13:19:09.925Z,4.18
2022-11-23T13:21:42.096Z,3.80
2022-11-23T13:24:31.504Z,3.90
2022-11-23T13:27:32.170Z,3.50
2022-11-23T13:30:12.927Z,3.20
2022-11-23T13:32:56.765Z,3.75
2022-11-23T13:35:56.558Z,3.10
2022-11-23T13:38:40.171Z,3.13
2022-11-23T13:41:57.527Z,2.63
2022-11-23T13:44:33.183Z,2.60
2022-11-23T13:47:09.171Z,3.22
2022-11-23T13:49:44.438Z,3.15
2022-11-23T13:52:36.962Z,3.85
2022-11-23T13:55:20.756Z,3.40
2022-11-23T13:58:25.663Z,3.60
2022-11-23T14:00:57.537Z,2.85
2022-11-23T14:03:56.857Z,3.35
2022-11-23T14:06:37.401Z,3.13
2022-11-23T14:09:14.654Z,3.00
2022-11-23T14:12:08.629Z,3.17
2022-11-23T14:14:49.971Z,3.22
2022-11-23T14:17:42.454Z,3.35
2022-11-23T14:20:26.920Z,3.63
2022-11-23T14:23:13.487Z,3.20
2022-11-23T14:25:55.892Z,3.45
2022-11-23T14:28:42.845Z,3.55
2022-11-23T14:31:25.703Z,3.28
2022-11-23T14:34:04.120Z,3.72
2022-11-23T14:36:46.829Z,4.97
2022-11-23T14:39:50.246Z,4.18
2022-11-23T14:42:22.940Z,3.40
2022-11-23T14:44:53.924Z,3.53
2022-11-23T14:47:30.107Z,3.92
2022-11-23T14:50:00.094Z,3.55
2022-11-23T14:52:36.276Z,4.80
2022-11-23T14:55:11.319Z,3.63
2022-11-23T14:57:45.826Z,3.97
2022-11-23T15:00:28.712Z,4.03
2022-11-23T15:03:00.447Z,3.90
2022-11-23T15:05:32.603Z,3.97
2022-11-23T15:08:08.419Z,3.70
2022-11-23T15:10:48.242Z,3.75
2022-11-23T15:13:23.624Z,3.90
2022-11-23T15:15:55.413Z,3.67
2022-11-23T15:18:35.500Z,4.05
2022-11-23T15:21:08.297Z,4.28
2022-11-23T15:23:44.210Z,4.22
2022-11-23T15:26:42.105Z,4.35
2022-11-23T15:29:32.241Z,5.43
2022-11-23T15:34:54.325Z,5.47
2022-11-23T15:37:24.793Z,6.22
2022-11-23T15:39:58.789Z,5.07
2022-11-23T15:42:30.095Z,5.30
2022-11-23T15:44:59.795Z,5.50
2022-11-23T15:47:32.103Z,5.78
2022-11-23T15:50:04.522Z,4.85
2022-11-23T15:52:38.243Z,4.57
2022-11-23T15:57:43.007Z,5.78
2022-11-23T16:00:25.898Z,5.05
2022-11-23T16:02:55.814Z,4.50
2022-11-23T16:05:26.808Z,4.10
2022-11-23T16:07:57.865Z,3.95
2022-11-23T16:10:31.338Z,4.32
2022-11-23T16:13:02.516Z,3.83
2022-11-23T16:15:42.085Z,3.75
2022-11-23T16:18:25.201Z,4.45
2022-11-23T16:20:57.505Z,4.40
2022-11-23T16:23:29.182Z,4.93
2022-11-23T16:26:04.408Z,4.20
2022-11-23T16:28:36.390Z,4.63
2022-11-23T16:31:07.121Z,4.90
2022-11-23T16:33:37.318Z,4.00
2022-11-23T16:36:07.632Z,4.43
2022-11-23T16:38:37.291Z,4.80
2022-11-23T16:41:10.995Z,5.07
2022-11-23T16:46:12.151Z,5.47
2022-11-23T16:48:43.960Z,6.07
2022-11-23T16:51:14.747Z,5.93
2022-11-23T16:56:38.928Z,6.03
2022-11-23T16:59:08.757Z,6.22
2022-11-23T17:01:43.705Z,4.75
2022-11-23T17:04:19.078Z,4.50
2022-11-23T17:06:48.746Z,6.72
2022-11-23T17:09:18.699Z,6.05
2022-11-23T17:11:51.633Z,5.80
2022-11-23T17:14:30.118Z,6.53
2022-11-23T17:17:02.883Z,5.78
2022-11-23T17:19:32.998Z,6.13
2022-11-23T17:22:02.900Z,4.35
2022-11-23T17:24:32.755Z,5.22
2022-11-23T17:27:05.173Z,4.93
2022-11-23T17:29:40.420Z,5.70
2022-11-23T17:32:13.515Z,5.40
2022-11-23T17:34:43.592Z,5.50
2022-11-23T17:37:20.798Z,5.50
2022-11-23T17:39:51.160Z,6.05
2022-11-23T17:42:23.501Z,5.75
2022-11-23T17:44:53.409Z,6.40
2022-11-23T17:47:28.884Z,5.70
2022-11-23T17:49:59.021Z,5.32
2022-11-23T17:52:29.138Z,5.03
2022-11-23T17:54:58.904Z,4.95
2022-11-23T17:57:31.470Z,5.85
2022-11-23T18:00:03.560Z,5.20
2022-11-23T18:02:33.760Z,6.07
2022-11-23T18:05:03.425Z,5.50
2022-11-23T18:07:37.014Z,5.20
2022-11-23T18:10:07.369Z,5.20
2022-11-23T18:12:39.868Z,5.78
2022-11-23T18:15:11.967Z,5.45
2022-11-23T18:17:41.688Z,6.03
2022-11-23T18:20:13.567Z,6.47
2022-11-23T18:22:43.336Z,5.55
2022-11-23T18:25:13.014Z,5.53
2022-11-23T18:27:45.519Z,5.93
2022-11-23T18:30:15.560Z,5.35
2022-11-23T18:32:45.341Z,6.30
2022-11-23T18:35:15.392Z,5.95
2022-11-23T18:37:45.373Z,6.45
2022-11-23T18:40:16.316Z,7.20
2022-11-23T18:42:48.707Z,6.07
2022-11-23T18:45:18.753Z,6.72
2022-11-23T18:47:48.836Z,6.15
2022-11-23T18:50:19.065Z,6.93
2022-11-23T18:52:48.993Z,5.63
2022-11-23T18:55:18.888Z,6.70
2022-11-23T18:57:51.321Z,7.05
2022-11-23T19:00:22.338Z,5.70
2022-11-23T19:02:55.897Z,7.10
2022-11-23T19:05:26.466Z,5.82
2022-11-23T19:07:57.686Z,6.63
2022-11-23T19:10:27.351Z,5.82
2022-11-23T19:13:04.903Z,6.53
2022-11-23T19:15:35.688Z,6.78
2022-11-23T19:18:05.895Z,6.35
2022-11-23T19:20:35.895Z,6.57
2022-11-23T19:23:05.573Z,6.90
2022-11-23T19:25:35.229Z,6.40
2022-11-23T19:28:07.742Z,5.72
2022-11-23T19:30:38.266Z,6.15
2022-11-23T19:33:07.944Z,5.82
2022-11-23T19:35:37.575Z,6.90
2022-11-23T19:38:07.226Z,6.60
2022-11-23T19:40:36.848Z,4.65
2022-11-23T19:43:09.203Z,4.88
2022-11-23T19:45:38.806Z,5.72
2022-11-23T19:48:09.344Z,5.43
2022-11-23T19:50:39.170Z,4.20
2022-11-23T19:53:13.249Z,4.95
2022-11-23T19:55:43.002Z,4.40
2022-11-23T19:58:16.885Z,4.88
2022-11-23T20:00:47.027Z,4.72
2022-11-23T20:03:17.577Z,5.25
2022-11-23T20:06:00.014Z,4.65
2022-11-23T20:08:31.289Z,4.65
2022-11-23T20:11:01.073Z,5.00
2022-11-23T20:13:33.523Z,4.53
2022-11-23T20:16:05.413Z,4.38
2022-11-23T20:18:35.355Z,4.28
2022-11-23T20:21:05.546Z,3.58
2022-11-23T20:23:35.544Z,4.90
2022-11-23T20:26:05.135Z,5.00
2022-11-23T20:28:37.668Z,4.20
2022-11-23T20:31:07.961Z,3.92
2022-11-23T20:33:39.643Z,4.43
2022-11-23T20:36:13.002Z,4.53
2022-11-23T20:38:43.298Z,3.58
2022-11-23T20:41:17.143Z,3.95
2022-11-23T20:43:51.140Z,4.22
2022-11-23T20:46:45.598Z,3.95
2022-11-23T20:49:10.931Z,4.22
2022-11-23T20:51:40.937Z,5.45
2022-11-23T20:54:12.350Z,5.60
2022-11-23T20:56:42.258Z,5.55
2022-11-23T20:59:14.745Z,5.25
2022-11-23T21:01:44.574Z,6.30
2022-11-23T21:04:14.307Z,6.28
2022-11-23T21:06:43.925Z,5.35
2022-11-23T21:09:13.847Z,5.63
2022-11-23T21:11:56.050Z,6.60
2022-11-23T21:14:31.918Z,6.60
2022-11-23T21:17:02.956Z,5.85
2022-11-23T21:19:36.890Z,6.35
2022-11-23T21:22:09.563Z,5.72
2022-11-23T21:24:39.904Z,4.97
2022-11-23T21:27:13.583Z,6.53
2022-11-23T21:32:17.492Z,5.20
2022-11-23T21:34:47.736Z,5.22
2022-11-23T21:37:18.068Z,6.38
2022-11-23T21:39:52.662Z,5.32
2022-11-23T21:42:22.769Z,5.35
2022-11-23T21:44:54.936Z,6.68
2022-11-23T21:47:24.871Z,5.10
2022-11-23T21:49:54.499Z,5.03
2022-11-23T21:52:24.524Z,6.70
2022-11-23T21:54:58.250Z,5.15
2022-11-23T22:00:13.764Z,5.63
2022-11-23T22:02:45.828Z,5.30
2022-11-23T22:05:16.334Z,6.15
2022-11-23T22:08:00.467Z,6.00
2022-11-23T22:10:35.547Z,5.88
2022-11-23T22:13:06.375Z,4.25
2022-11-23T22:15:38.647Z,5.47
2022-11-23T22:18:08.300Z,4.40
2022-11-23T22:20:38.469Z,5.30
2022-11-23T22:23:08.302Z,4.30
2022-11-23T22:25:37.990Z,5.72
2022-11-23T22:28:07.712Z,4.68
2022-11-23T22:30:39.864Z,6.82
2022-11-23T22:33:09.393Z,5.57
2022-11-23T22:35:39.185Z,4.63
2022-11-23T22:38:08.775Z,4.57
2022-11-23T22:40:38.697Z,5.20
2022-11-23T22:43:08.337Z,4.32
2022-11-23T22:45:40.576Z,5.50
2022-11-23T22:48:10.176Z,5.03
2022-11-23T22:50:41.281Z,4.25
2022-11-23T22:53:10.859Z,4.35
2022-11-23T22:55:40.992Z,4.57
2022-11-23T22:58:10.619Z,3.83
2022-11-23T23:00:43.986Z,4.53
2022-11-23T23:03:13.749Z,3.40
2022-11-23T23:05:43.871Z,4.13
2022-11-23T23:08:13.877Z,4.32
2022-11-23T23:10:43.522Z,3.75
2022-11-23T23:13:13.194Z,3.45
2022-11-23T23:15:45.543Z,2.75
2022-11-23T23:18:17.196Z,2.95
2022-11-23T23:20:46.751Z,2.95
2022-11-23T23:23:16.826Z,2.60
2022-11-23T23:25:46.405Z,3.63
2022-11-23T23:28:16.291Z,2.92
2022-11-23T23:30:48.714Z,2.50
2022-11-23T23:33:19.423Z,2.58
2022-11-23T23:35:49.003Z,2.42
2022-11-23T23:38:21.130Z,3.20
2022-11-23T23:40:51.711Z,2.63
2022-11-23T23:43:21.534Z,3.38
2022-11-23T23:45:54.684Z,2.78
2022-11-23T23:48:24.333Z,3.00
2022-11-23T23:50:54.237Z,3.22
2022-11-23T23:53:23.925Z,3.35
2022-11-23T23:56:00.338Z,4.18
2022-11-23T23:58:32.258Z,4.22
